createdAt,value
2019-03-17T00:01:29.333Z,95.04
2019-03-17T00:03:58.660Z,94.91
2019-03-17T00:06:28.104Z,94.81
2019-03-17T00:08:57.472Z,94.89
2019-03-17T00:11:26.801Z,94.94
2019-03-17T00:13:56.153Z,95.04
2019-03-17T00:16:25.420Z,95.03
2019-03-17T00:18:54.724Z,94.93
2019-03-17T00:21:24.077Z,94.79
2019-03-17T00:23:53.350Z,94.89
2019-03-17T00:26:22.650Z,94.71
2019-03-17T00:28:51.973Z,94.79
2019-03-17T00:31:24.087Z,94.78
2019-03-17T00:33:52.346Z,94.76
2019-03-17T00:36:21.700Z,94.69
2019-03-17T00:38:51.019Z,94.32
2019-03-17T00:41:20.240Z,94.37
2019-03-17T00:43:49.498Z,94.33
2019-03-17T00:46:18.751Z,94.27
2019-03-17T00:48:48.054Z,94.42
2019-03-17T00:51:17.375Z,94.37
2019-03-17T00:53:46.721Z,94.38
2019-03-17T00:56:16.023Z,94.43
2019-03-17T00:58:45.253Z,94.20
2019-03-17T01:01:14.557Z,93.88
2019-03-17T01:03:43.802Z,93.59
2019-03-17T01:06:13.067Z,93.69
2019-03-17T01:08:42.427Z,93.42
2019-03-17T01:11:11.841Z,93.34
2019-03-17T01:13:41.154Z,93.36
2019-03-17T01:16:10.516Z,93.14
2019-03-17T01:18:39.824Z,93.17
2019-03-17T01:21:09.069Z,93.48
2019-03-17T01:23:38.322Z,93.45
2019-03-17T01:26:07.577Z,93.60
2019-03-17T01:28:36.874Z,93.96
2019-03-17T01:31:06.240Z,93.82
2019-03-17T01:33:35.560Z,93.98
2019-03-17T01:36:04.867Z,93.95
2019-03-17T01:38:34.189Z,93.14
2019-03-17T01:41:03.459Z,93.83
2019-03-17T01:43:32.973Z,93.69
2019-03-17T01:46:02.317Z,93.59
2019-03-17T01:48:31.579Z,93.92
2019-03-17T01:51:00.967Z,93.70
2019-03-17T01:53:30.251Z,93.72
2019-03-17T01:55:59.516Z,93.82
2019-03-17T01:58:28.846Z,93.90
2019-03-17T02:00:58.218Z,93.84
2019-03-17T02:03:27.565Z,93.77
2019-03-17T02:05:57.344Z,93.97
2019-03-17T02:08:26.752Z,93.79
2019-03-17T02:10:56.158Z,93.75
2019-03-17T02:13:25.715Z,94.09
2019-03-17T02:15:55.006Z,93.99
2019-03-17T02:18:24.573Z,93.92
2019-03-17T02:20:54.140Z,94.13
2019-03-17T02:23:23.529Z,94.13
2019-03-17T02:25:53.314Z,94.09
2019-03-17T02:28:22.700Z,94.06
2019-03-17T02:30:51.975Z,93.96
2019-03-17T02:33:21.246Z,92.99
2019-03-17T02:35:50.493Z,94.03
2019-03-17T02:38:19.798Z,93.79
2019-03-17T02:40:49.123Z,93.73
2019-03-17T02:43:18.444Z,93.73
2019-03-17T02:45:47.814Z,93.69
2019-03-17T02:48:17.153Z,93.74
2019-03-17T02:50:46.423Z,93.65
2019-03-17T02:53:15.670Z,93.78
2019-03-17T02:55:44.940Z,93.77
2019-03-17T02:58:14.253Z,93.51
2019-03-17T03:00:43.577Z,93.67
2019-03-17T03:03:12.834Z,93.18
2019-03-17T03:05:53.931Z,93.50
2019-03-17T03:08:13.236Z,93.40
2019-03-17T03:10:42.533Z,93.29
2019-03-17T03:13:11.928Z,93.26
2019-03-17T03:15:41.725Z,93.30
2019-03-17T03:18:11.179Z,93.31
2019-03-17T03:20:40.515Z,93.13
2019-03-17T03:23:09.779Z,92.96
2019-03-17T03:25:39.095Z,92.87
2019-03-17T03:28:08.553Z,92.57
2019-03-17T03:30:38.097Z,92.40
2019-03-17T03:33:07.845Z,92.26
2019-03-17T03:35:37.213Z,92.45
2019-03-17T03:38:06.737Z,91.91
2019-03-17T03:40:36.044Z,92.39
2019-03-17T03:43:05.449Z,92.20
2019-03-17T03:45:34.730Z,91.49
2019-03-17T03:48:04.483Z,91.31
2019-03-17T03:50:33.837Z,91.40
2019-03-17T03:53:03.142Z,91.24
2019-03-17T03:55:32.602Z,91.02
2019-03-17T03:58:01.913Z,90.90
2019-03-17T04:00:31.162Z,91.04
2019-03-17T04:03:00.477Z,91.16
2019-03-17T04:05:32.653Z,91.43
2019-03-17T04:08:01.060Z,91.24
2019-03-17T04:10:30.414Z,91.89
2019-03-17T04:12:59.865Z,91.83
2019-03-17T04:15:29.192Z,91.88
2019-03-17T04:17:58.501Z,92.06
2019-03-17T04:20:27.798Z,91.83
2019-03-17T04:22:57.132Z,91.78
2019-03-17T04:25:26.490Z,91.53
2019-03-17T04:27:55.765Z,91.47
2019-03-17T04:30:25.089Z,91.26
2019-03-17T04:32:54.363Z,90.99
2019-03-17T04:35:23.660Z,91.04
2019-03-17T04:37:53.213Z,90.72
2019-03-17T04:40:22.561Z,90.89
2019-03-17T04:42:51.858Z,90.94
2019-03-17T04:45:21.209Z,91.24
2019-03-17T04:47:50.554Z,91.09
2019-03-17T04:50:19.794Z,90.92
2019-03-17T04:52:49.077Z,90.84
2019-03-17T04:55:18.371Z,90.68
2019-03-17T04:57:47.705Z,90.52
2019-03-17T05:00:17.002Z,90.40
2019-03-17T05:02:46.365Z,90.08
2019-03-17T05:05:15.833Z,90.07
2019-03-17T05:07:45.161Z,90.04
2019-03-17T05:10:14.450Z,89.96
2019-03-17T05:12:43.783Z,89.48
2019-03-17T05:15:13.122Z,89.64
2019-03-17T05:17:42.433Z,89.15
2019-03-17T05:20:12.724Z,89.28
2019-03-17T05:22:42.044Z,88.72
2019-03-17T05:25:11.430Z,88.20
2019-03-17T05:27:40.762Z,87.50
2019-03-17T05:30:10.161Z,87.95
2019-03-17T05:32:39.460Z,87.87
2019-03-17T05:35:08.747Z,87.57
2019-03-17T05:37:38.080Z,87.65
2019-03-17T05:40:07.429Z,87.13
2019-03-17T05:42:36.700Z,87.63
2019-03-17T05:45:06.260Z,87.05
2019-03-17T05:47:35.601Z,87.46
2019-03-17T05:50:05.417Z,86.47
2019-03-17T05:52:34.804Z,86.53
2019-03-17T05:55:04.383Z,86.74
2019-03-17T05:57:33.643Z,86.56
2019-03-17T06:00:02.977Z,87.00
2019-03-17T06:02:32.240Z,86.46
2019-03-17T06:05:01.494Z,85.98
2019-03-17T06:07:30.815Z,86.82
2019-03-17T06:10:00.349Z,86.25
2019-03-17T06:12:29.679Z,85.58
2019-03-17T06:14:58.987Z,86.46
2019-03-17T06:17:28.271Z,86.20
2019-03-17T06:19:57.590Z,86.85
2019-03-17T06:22:27.026Z,86.79
2019-03-17T06:24:56.284Z,86.75
2019-03-17T06:27:25.580Z,87.08
2019-03-17T06:29:54.928Z,86.82
2019-03-17T06:32:24.353Z,87.77
2019-03-17T06:34:53.948Z,87.19
2019-03-17T06:37:31.047Z,87.08
2019-03-17T06:39:54.241Z,86.68
2019-03-17T06:42:23.508Z,86.69
2019-03-17T06:44:52.834Z,86.33
2019-03-17T06:47:22.218Z,86.83
2019-03-17T06:49:51.519Z,87.14
2019-03-17T06:52:20.820Z,88.11
2019-03-17T06:54:50.148Z,88.29
2019-03-17T06:57:19.468Z,88.21
2019-03-17T06:59:48.708Z,88.38
2019-03-17T07:02:18.052Z,88.43
2019-03-17T07:04:47.400Z,88.89
2019-03-17T07:07:16.689Z,89.14
2019-03-17T07:09:45.983Z,87.87
2019-03-17T07:12:15.248Z,87.61
2019-03-17T07:14:44.535Z,87.57
2019-03-17T07:17:13.846Z,87.64
2019-03-17T07:19:43.179Z,87.39
2019-03-17T07:22:12.553Z,86.80
2019-03-17T07:24:41.971Z,87.32
2019-03-17T07:27:11.226Z,87.40
2019-03-17T07:29:40.486Z,87.58
2019-03-17T07:32:09.791Z,88.07
2019-03-17T07:34:39.054Z,87.75
2019-03-17T07:37:08.319Z,87.79
2019-03-17T07:39:37.844Z,87.06
2019-03-17T07:42:07.192Z,87.24
2019-03-17T07:44:36.535Z,87.21
2019-03-17T07:47:05.844Z,87.50
2019-03-17T07:49:35.116Z,88.14
2019-03-17T07:52:04.356Z,88.33
2019-03-17T07:54:35.076Z,88.70
2019-03-17T07:57:04.882Z,89.07
2019-03-17T07:59:34.189Z,88.87
2019-03-17T08:02:03.516Z,89.29
2019-03-17T08:04:41.940Z,88.04
2019-03-17T08:07:03.814Z,88.27
2019-03-17T08:09:33.093Z,88.62
2019-03-17T08:12:02.391Z,89.01
2019-03-17T08:14:31.653Z,89.54
2019-03-17T08:17:00.954Z,89.51
2019-03-17T08:19:30.427Z,89.39
2019-03-17T08:21:59.788Z,89.25
2019-03-17T08:24:29.013Z,88.55
2019-03-17T08:26:58.530Z,88.92
2019-03-17T08:29:27.956Z,88.74
2019-03-17T08:31:57.424Z,88.84
2019-03-17T08:34:26.724Z,87.98
2019-03-17T08:36:55.949Z,87.88
2019-03-17T08:39:25.258Z,86.74
2019-03-17T08:41:54.587Z,86.27
2019-03-17T08:44:23.991Z,86.52
2019-03-17T08:46:53.431Z,86.09
2019-03-17T08:49:22.754Z,86.04
2019-03-17T08:51:52.085Z,86.70
2019-03-17T08:54:21.440Z,86.18
2019-03-17T08:56:50.788Z,85.86
2019-03-17T08:59:20.018Z,86.31
2019-03-17T09:01:49.386Z,86.15
2019-03-17T09:04:18.617Z,86.57
2019-03-17T09:06:47.929Z,87.17
2019-03-17T09:09:17.280Z,87.92
2019-03-17T09:11:46.621Z,88.19
2019-03-17T09:14:15.937Z,88.59
2019-03-17T09:16:45.214Z,88.12
2019-03-17T09:19:14.530Z,87.95
2019-03-17T09:21:43.816Z,87.94
2019-03-17T09:24:17.405Z,87.81
2019-03-17T09:26:44.112Z,87.90
2019-03-17T09:29:13.470Z,87.62
2019-03-17T09:31:42.811Z,87.40
2019-03-17T09:34:12.140Z,87.09
2019-03-17T09:36:41.419Z,87.05
2019-03-17T09:39:10.650Z,86.69
2019-03-17T09:41:39.950Z,85.59
2019-03-17T09:44:09.306Z,85.29
2019-03-17T09:46:38.619Z,83.15
2019-03-17T09:49:07.889Z,80.96
2019-03-17T09:51:37.126Z,80.13
2019-03-17T09:54:06.435Z,79.07
2019-03-17T09:56:35.752Z,79.04
2019-03-17T09:59:05.058Z,78.81
2019-03-17T10:01:34.379Z,78.44
2019-03-17T10:04:03.690Z,78.11
2019-03-17T10:06:32.972Z,74.64
2019-03-17T10:09:02.351Z,76.29
2019-03-17T10:11:31.705Z,72.50
2019-03-17T10:14:00.935Z,71.67
2019-03-17T10:16:30.239Z,71.50
2019-03-17T10:18:59.706Z,71.80
2019-03-17T10:21:29.098Z,71.07
2019-03-17T10:23:58.429Z,69.50
2019-03-17T10:26:27.738Z,67.84
2019-03-17T10:28:57.029Z,66.28
2019-03-17T10:31:26.431Z,62.75
2019-03-17T10:33:55.811Z,58.90
2019-03-17T10:36:25.217Z,55.59
2019-03-17T10:38:54.543Z,56.46
2019-03-17T10:41:24.004Z,55.60
2019-03-17T10:43:53.342Z,54.04
2019-03-17T10:46:22.686Z,57.21
2019-03-17T10:48:51.977Z,58.13
2019-03-17T10:51:21.260Z,62.00
2019-03-17T10:53:50.526Z,65.83
2019-03-17T10:56:19.856Z,68.66
2019-03-17T10:58:49.193Z,70.21
2019-03-17T11:01:18.717Z,72.40
2019-03-17T11:03:48.070Z,71.41
2019-03-17T11:06:17.347Z,70.27
2019-03-17T11:08:46.679Z,65.81
2019-03-17T11:11:16.149Z,65.15
2019-03-17T11:13:45.453Z,66.67
2019-03-17T11:16:14.775Z,69.38
2019-03-17T11:18:44.171Z,64.97
2019-03-17T11:21:13.488Z,58.81
2019-03-17T11:23:42.911Z,60.90
2019-03-17T11:26:12.319Z,63.13
2019-03-17T11:28:41.657Z,65.34
2019-03-17T11:31:10.888Z,67.05
2019-03-17T11:33:40.464Z,64.53
2019-03-17T11:36:09.807Z,63.93
2019-03-17T11:38:39.130Z,62.75
2019-03-17T11:41:08.599Z,59.88
2019-03-17T11:43:37.931Z,61.18
2019-03-17T11:46:07.173Z,61.05
2019-03-17T11:48:36.486Z,61.49
2019-03-17T11:51:05.851Z,62.16
2019-03-17T11:53:35.177Z,61.88
2019-03-17T11:56:04.464Z,63.84
2019-03-17T11:58:33.840Z,64.26
2019-03-17T12:01:03.179Z,63.63
2019-03-17T12:03:32.515Z,62.08
2019-03-17T12:06:01.843Z,60.80
2019-03-17T12:08:31.096Z,62.50
2019-03-17T12:11:00.345Z,64.36
2019-03-17T12:13:29.655Z,64.60
2019-03-17T12:15:59.019Z,64.06
2019-03-17T12:18:28.326Z,62.95
2019-03-17T12:20:57.588Z,63.71
2019-03-17T12:23:26.876Z,64.03
2019-03-17T12:25:56.217Z,64.39
2019-03-17T12:28:25.537Z,64.99
2019-03-17T12:30:54.855Z,64.84
2019-03-17T12:33:24.188Z,64.82
2019-03-17T12:35:53.666Z,65.67
2019-03-17T12:38:22.921Z,63.81
2019-03-17T12:40:52.222Z,64.63
2019-03-17T12:43:21.472Z,61.08
2019-03-17T12:45:50.767Z,62.47
2019-03-17T12:48:20.111Z,62.52
2019-03-17T12:50:49.456Z,62.90
2019-03-17T12:53:19.546Z,64.35
2019-03-17T12:55:48.804Z,63.96
2019-03-17T12:58:18.118Z,64.71
2019-03-17T13:00:47.409Z,64.84
2019-03-17T13:03:16.677Z,62.75
2019-03-17T13:05:46.015Z,61.76
2019-03-17T13:08:15.465Z,62.75
2019-03-17T13:10:44.805Z,60.85
2019-03-17T13:13:14.183Z,61.59
2019-03-17T13:15:43.608Z,60.06
2019-03-17T13:18:12.891Z,61.25
2019-03-17T13:20:42.195Z,61.82
2019-03-17T13:23:11.505Z,61.94
2019-03-17T13:25:40.836Z,63.30
2019-03-17T13:28:10.178Z,62.55
2019-03-17T13:30:39.523Z,63.05
2019-03-17T13:33:09.094Z,60.41
2019-03-17T13:35:38.352Z,61.04
2019-03-17T13:38:07.856Z,60.96
2019-03-17T13:40:37.263Z,59.86
2019-03-17T13:43:06.575Z,59.09
2019-03-17T13:45:35.871Z,60.11
2019-03-17T13:48:06.071Z,61.77
2019-03-17T13:50:35.377Z,61.29
2019-03-17T13:53:04.630Z,61.44
2019-03-17T13:55:34.028Z,62.23
2019-03-17T13:58:03.469Z,61.30
2019-03-17T14:00:33.108Z,63.78
2019-03-17T14:03:02.446Z,64.29
2019-03-17T14:05:31.784Z,62.71
2019-03-17T14:08:01.025Z,64.10
2019-03-17T14:10:40.475Z,63.41
2019-03-17T14:13:01.251Z,63.10
2019-03-17T14:15:30.578Z,62.48
2019-03-17T14:18:00.206Z,63.15
2019-03-17T14:20:29.687Z,63.88
2019-03-17T14:22:59.243Z,64.66
2019-03-17T14:25:28.796Z,64.13
2019-03-17T14:27:58.120Z,64.13
2019-03-17T14:30:27.438Z,61.24
2019-03-17T14:32:56.817Z,61.15
2019-03-17T14:35:26.121Z,61.78
2019-03-17T14:37:55.869Z,60.07
2019-03-17T14:40:25.635Z,63.04
2019-03-17T14:42:55.636Z,61.13
2019-03-17T14:45:25.332Z,62.17
2019-03-17T14:47:54.559Z,61.62
2019-03-17T14:50:23.827Z,61.11
2019-03-17T14:52:53.094Z,61.64
2019-03-17T14:55:22.418Z,60.79
2019-03-17T14:57:51.749Z,61.38
2019-03-17T15:00:21.098Z,61.78
2019-03-17T15:02:50.444Z,61.86
2019-03-17T15:05:19.747Z,61.17
2019-03-17T15:07:49.035Z,61.26
2019-03-17T15:10:18.807Z,61.58
2019-03-17T15:12:48.205Z,62.73
2019-03-17T15:15:17.777Z,62.32
2019-03-17T15:17:47.038Z,63.42
2019-03-17T15:20:17.553Z,63.72
2019-03-17T15:22:47.200Z,64.24
2019-03-17T15:25:16.500Z,63.56
2019-03-17T15:27:45.827Z,64.52
2019-03-17T15:30:17.359Z,64.87
2019-03-17T15:32:46.642Z,65.01
2019-03-17T15:35:16.025Z,65.63
2019-03-17T15:37:45.333Z,65.02
2019-03-17T15:40:14.741Z,65.88
2019-03-17T15:42:44.104Z,64.73
2019-03-17T15:45:14.876Z,64.62
2019-03-17T15:47:44.170Z,65.17
2019-03-17T15:50:14.743Z,64.49
2019-03-17T15:52:44.106Z,65.13
2019-03-17T15:55:13.711Z,64.98
2019-03-17T15:57:43.230Z,65.27
2019-03-17T16:00:25.050Z,65.52
2019-03-17T16:02:46.801Z,65.98
2019-03-17T16:05:16.089Z,66.42
2019-03-17T16:07:45.435Z,66.49
2019-03-17T16:10:15.901Z,66.29
2019-03-17T16:12:45.376Z,67.30
2019-03-17T16:15:14.886Z,67.01
2019-03-17T16:17:44.217Z,67.78
2019-03-17T16:20:15.777Z,68.49
2019-03-17T16:22:45.102Z,68.61
2019-03-17T16:25:14.998Z,69.15
2019-03-17T16:27:44.518Z,69.34
2019-03-17T16:30:16.591Z,68.26
2019-03-17T16:32:45.866Z,68.04
2019-03-17T16:35:15.192Z,67.79
2019-03-17T16:37:45.346Z,68.54
2019-03-17T16:40:15.717Z,66.64
2019-03-17T16:42:45.264Z,67.36
2019-03-17T16:45:14.989Z,66.90
2019-03-17T16:47:44.253Z,67.55
2019-03-17T16:50:15.510Z,67.35
2019-03-17T16:52:44.907Z,67.35
2019-03-17T16:55:14.395Z,68.32
2019-03-17T16:57:43.888Z,68.21
2019-03-17T17:00:19.316Z,67.71
2019-03-17T17:02:49.144Z,66.99
2019-03-17T17:05:18.491Z,67.35
2019-03-17T17:07:47.740Z,68.21
2019-03-17T17:10:17.819Z,67.75
2019-03-17T17:12:47.352Z,67.27
2019-03-17T17:15:18.586Z,67.24
2019-03-17T17:17:47.924Z,67.16
2019-03-17T17:20:19.280Z,67.96
2019-03-17T17:22:48.622Z,68.48
2019-03-17T17:25:17.873Z,67.59
2019-03-17T17:27:47.501Z,68.16
2019-03-17T17:30:17.268Z,67.63
2019-03-17T17:32:46.711Z,68.25
2019-03-17T17:35:16.052Z,68.81
2019-03-17T17:37:45.458Z,69.61
2019-03-17T17:40:15.809Z,69.71
2019-03-17T17:42:45.049Z,69.98
2019-03-17T17:45:15.378Z,70.95
2019-03-17T17:47:44.840Z,70.72
2019-03-17T17:50:15.971Z,70.77
2019-03-17T17:52:45.750Z,71.33
2019-03-17T17:55:15.392Z,72.01
2019-03-17T17:57:44.777Z,72.06
2019-03-17T18:00:17.559Z,71.69
2019-03-17T18:02:46.843Z,71.97
2019-03-17T18:05:16.388Z,72.14
2019-03-17T18:07:45.829Z,72.00
2019-03-17T18:10:15.217Z,71.40
2019-03-17T18:12:44.707Z,70.90
2019-03-17T18:15:16.111Z,71.33
2019-03-17T18:17:45.349Z,70.84
2019-03-17T18:20:14.670Z,71.20
2019-03-17T18:22:43.926Z,70.76
2019-03-17T18:25:14.036Z,71.07
2019-03-17T18:27:43.419Z,70.97
2019-03-17T18:30:14.230Z,71.00
2019-03-17T18:32:43.514Z,71.16
2019-03-17T18:35:12.938Z,72.10
2019-03-17T18:37:42.265Z,70.66
2019-03-17T18:40:12.739Z,71.52
2019-03-17T18:42:42.025Z,70.69
2019-03-17T18:45:13.675Z,71.42
2019-03-17T18:47:42.979Z,70.90
2019-03-17T18:50:20.214Z,70.76
2019-03-17T18:52:43.426Z,70.47
2019-03-17T18:55:12.967Z,70.78
2019-03-17T18:57:42.246Z,70.30
2019-03-17T19:00:14.227Z,70.19
2019-03-17T19:02:43.583Z,70.49
2019-03-17T19:05:13.306Z,70.51
2019-03-17T19:07:42.635Z,70.34
2019-03-17T19:10:11.875Z,70.80
2019-03-17T19:12:45.746Z,70.35
2019-03-17T19:15:13.349Z,70.30
2019-03-17T19:17:42.931Z,70.79
2019-03-17T19:20:13.547Z,70.18
2019-03-17T19:22:42.873Z,70.07
2019-03-17T19:25:13.018Z,69.69
2019-03-17T19:27:42.289Z,69.30
2019-03-17T19:30:13.355Z,69.88
2019-03-17T19:32:42.790Z,69.25
2019-03-17T19:35:12.078Z,69.26
2019-03-17T19:37:41.586Z,69.25
2019-03-17T19:40:12.094Z,69.13
2019-03-17T19:42:41.429Z,69.13
2019-03-17T19:45:11.160Z,69.34
2019-03-17T19:47:40.496Z,69.49
2019-03-17T19:50:10.300Z,70.33
2019-03-17T19:52:39.593Z,70.09
2019-03-17T19:55:09.291Z,70.15
2019-03-17T19:57:38.690Z,69.98
2019-03-17T20:00:09.159Z,70.61
2019-03-17T20:02:38.534Z,71.18
2019-03-17T20:05:08.063Z,71.05
2019-03-17T20:07:37.309Z,71.22
2019-03-17T20:10:08.328Z,70.83
2019-03-17T20:12:37.652Z,70.67
2019-03-17T20:15:06.975Z,70.72
2019-03-17T20:17:36.351Z,70.06
2019-03-17T20:20:06.278Z,70.43
2019-03-17T20:22:35.529Z,70.86
2019-03-17T20:25:04.934Z,70.58
2019-03-17T20:27:34.287Z,70.86
2019-03-17T20:30:03.668Z,70.17
2019-03-17T20:32:32.997Z,71.20
2019-03-17T20:35:02.331Z,73.14
2019-03-17T20:37:31.611Z,72.67
2019-03-17T20:40:00.850Z,72.26
2019-03-17T20:42:30.166Z,73.44
2019-03-17T20:44:59.543Z,74.50
2019-03-17T20:47:28.801Z,74.74
2019-03-17T20:49:58.145Z,75.98
2019-03-17T20:52:27.466Z,76.06
2019-03-17T20:54:56.757Z,76.46
2019-03-17T20:57:26.024Z,75.35
2019-03-17T20:59:55.283Z,75.03
2019-03-17T21:02:24.532Z,73.96
2019-03-17T21:04:53.811Z,73.52
2019-03-17T21:07:23.122Z,73.33
2019-03-17T21:09:52.507Z,73.76
2019-03-17T21:12:21.816Z,74.18
2019-03-17T21:14:51.101Z,73.64
2019-03-17T21:17:20.334Z,73.66
2019-03-17T21:19:49.580Z,73.49
2019-03-17T21:22:18.873Z,73.75
2019-03-17T21:24:48.189Z,74.20
2019-03-17T21:27:17.682Z,74.51
2019-03-17T21:29:47.002Z,74.59
2019-03-17T21:32:16.315Z,74.42
2019-03-17T21:34:45.619Z,74.01
2019-03-17T21:37:15.001Z,74.25
2019-03-17T21:39:44.534Z,74.20
2019-03-17T21:42:13.879Z,74.27
2019-03-17T21:44:43.350Z,74.18
2019-03-17T21:47:12.739Z,73.96
2019-03-17T21:49:42.037Z,74.44
2019-03-17T21:52:11.340Z,73.23
2019-03-17T21:54:40.665Z,73.14
2019-03-17T21:57:10.506Z,72.67
2019-03-17T21:59:40.042Z,73.00
2019-03-17T22:02:13.199Z,73.41
2019-03-17T22:04:40.505Z,73.59
2019-03-17T22:07:09.808Z,73.73
2019-03-17T22:09:39.056Z,73.93
2019-03-17T22:12:08.475Z,74.07
2019-03-17T22:14:37.909Z,74.57
2019-03-17T22:17:07.354Z,74.35
2019-03-17T22:19:36.735Z,74.72
2019-03-17T22:22:08.926Z,74.89
2019-03-17T22:24:37.430Z,74.38
2019-03-17T22:27:06.725Z,74.13
2019-03-17T22:29:36.149Z,73.25
2019-03-17T22:32:05.412Z,73.81
2019-03-17T22:34:34.692Z,73.54
2019-03-17T22:37:04.061Z,73.65
2019-03-17T22:39:33.797Z,73.37
2019-03-17T22:42:03.359Z,73.08
2019-03-17T22:44:32.966Z,72.85
2019-03-17T22:47:02.433Z,72.53
2019-03-17T22:49:31.828Z,72.53
2019-03-17T22:52:01.096Z,72.73
2019-03-17T22:54:30.636Z,72.87
2019-03-17T22:57:00.008Z,73.30
2019-03-17T22:59:29.245Z,73.97
2019-03-17T23:01:58.613Z,75.17
2019-03-17T23:04:27.953Z,75.62
2019-03-17T23:06:57.363Z,76.09
2019-03-17T23:09:26.640Z,75.47
2019-03-17T23:11:55.993Z,75.75
2019-03-17T23:14:36.301Z,75.87
2019-03-17T23:16:56.241Z,76.29
2019-03-17T23:19:25.525Z,77.47
2019-03-17T23:21:54.789Z,77.80
2019-03-17T23:24:24.118Z,78.02
2019-03-17T23:26:54.343Z,78.36
2019-03-17T23:29:23.706Z,78.05
2019-03-17T23:31:52.998Z,78.37
2019-03-17T23:34:22.289Z,78.78
2019-03-17T23:36:51.650Z,80.04
2019-03-17T23:39:20.897Z,80.20
2019-03-17T23:41:50.227Z,81.01
2019-03-17T23:44:19.535Z,81.49
2019-03-17T23:46:48.790Z,82.47
2019-03-17T23:49:18.069Z,82.60
2019-03-17T23:51:47.628Z,82.41
2019-03-17T23:54:17.216Z,82.45
2019-03-17T23:56:46.527Z,81.76
2019-03-17T23:59:15.884Z,81.16
